Time;durP1;ratioP1;P1;durP2;ratioP2;P2;SDS_P1;SDS_P2;PMS_P1;PMS_P2;Temp;Humidity;BMP_temperature;BMP_pressure;BME280_temperature;BME280_humidity;BME280_pressure;Samples;Min_cycle;Max_cycle;Signal;HPM_P1;HPM_P2
2023/04/11 00:01:45;;;;;;;2.70;1.83;;;;;;;;;;5083888;28;20036;-84
2023/04/11 00:04:13;;;;;;;3.40;2.08;;;;;;;;;;5082168;28;20063;-83
2023/04/11 00:06:39;;;;;;;4.25;2.08;;;;;;;;;;5082623;28;20044;-82
2023/04/11 00:09:04;;;;;;;2.63;1.95;;;;;;;;;;5081721;28;20074;-83
2023/04/11 00:11:31;;;;;;;2.70;2.13;;;;;;;;;;5080817;28;20044;-83
2023/04/11 00:13:57;;;;;;;2.90;2.08;;;;;;;;;;5081284;28;20112;-83
2023/04/11 00:16:26;;;;;;;2.30;1.85;;;;;;;;;;5080679;28;20072;-83
2023/04/11 00:18:51;;;;;;;3.42;2.00;;;;;;;;;;5080492;28;20037;-82
2023/04/11 00:21:17;;;;;;;2.90;1.90;;;;;;;;;;5081989;28;20047;-83
2023/04/11 00:23:42;;;;;;;4.13;1.63;;;;;;;;;;5080419;28;20041;-83
2023/04/11 00:26:08;;;;;;;2.63;1.70;;;;;;;;;;5078680;28;20040;-82
2023/04/11 00:28:35;;;;;;;3.10;1.90;;;;;;;;;;5081277;28;20103;-83
2023/04/11 00:31:01;;;;;;;2.92;2.03;;;;;;;;;;5059907;28;20041;-82
2023/04/11 00:33:26;;;;;;;2.70;2.00;;;;;;;;;;5080855;28;20033;-83
2023/04/11 00:35:52;;;;;;;2.58;1.80;;;;;;;;;;5080717;28;20040;-82
2023/04/11 00:38:18;;;;;;;2.95;2.08;;;;;;;;;;5080608;28;20481;-83
2023/04/11 00:40:43;;;;;;;3.58;1.98;;;;;;;;;;5081732;28;20116;-83
2023/04/11 00:43:09;;;;;;;3.28;2.10;;;;;;;;;;5081102;28;20043;-83
2023/04/11 00:45:35;;;;;;;2.80;1.98;;;;;;;;;;5081379;28;20059;-83
2023/04/11 00:48:01;;;;;;;2.40;1.58;;;;;;;;;;5079807;28;20047;-83
2023/04/11 00:50:27;;;;;;;2.75;1.88;;;;;;;;;;5079308;28;20115;-83
2023/04/11 00:52:55;;;;;;;3.22;1.85;;;;;;;;;;5078320;28;20079;-83
2023/04/11 00:55:21;;;;;;;5.38;1.92;;;;;;;;;;5079738;28;20062;-83
2023/04/11 00:57:46;;;;;;;2.75;1.90;;;;;;;;;;5078562;28;20097;-83
2023/04/11 01:00:13;;;;;;;2.47;1.75;;;;;;;;;;5078327;28;20032;-83
2023/04/11 01:02:41;;;;;;;2.28;1.60;;;;;;;;;;5076536;28;20402;-83
2023/04/11 01:05:13;;;;;;;2.65;1.77;;;;;;;;;;5078227;28;20067;-83
2023/04/11 01:07:42;;;;;;;3.15;1.95;;;;;;;;;;5077748;28;20042;-84
2023/04/11 01:10:09;;;;;;;2.53;1.80;;;;;;;;;;5077296;28;20032;-83
2023/04/11 01:12:36;;;;;;;2.50;1.80;;;;;;;;;;5078132;28;20079;-83
2023/04/11 01:15:02;;;;;;;3.35;2.10;;;;;;;;;;5089818;28;20032;-83
2023/04/11 01:17:28;;;;;;;2.20;1.70;;;;;;;;;;5077724;28;20510;-84
2023/04/11 01:19:53;;;;;;;2.97;1.70;;;;;;;;;;5077154;28;20059;-83
2023/04/11 01:22:21;;;;;;;2.85;1.70;;;;;;;;;;5073590;28;20040;-83
2023/04/11 01:24:47;;;;;;;6.38;1.83;;;;;;;;;;5077980;28;20486;-83
2023/04/11 01:27:13;;;;;;;2.13;1.70;;;;;;;;;;5077236;28;20040;-83
2023/04/11 01:29:38;;;;;;;2.42;1.80;;;;;;;;;;5076339;28;20056;-83
2023/04/11 01:32:04;;;;;;;2.13;1.63;;;;;;;;;;5076677;28;20131;-83
2023/04/11 01:34:31;;;;;;;2.67;1.80;;;;;;;;;;5076964;28;20024;-83
2023/04/11 01:36:57;;;;;;;2.88;1.90;;;;;;;;;;5073835;28;20033;-83
2023/04/11 01:39:22;;;;;;;2.47;1.80;;;;;;;;;;5091545;28;20052;-83
2023/04/11 01:41:49;;;;;;;2.83;1.83;;;;;;;;;;5075795;28;20059;-82
2023/04/11 01:44:15;;;;;;;3.28;1.90;;;;;;;;;;5076290;28;20170;-83
2023/04/11 01:46:42;;;;;;;2.78;2.10;;;;;;;;;;5076388;28;20033;-82
2023/04/11 01:49:07;;;;;;;2.55;1.75;;;;;;;;;;5075690;28;20037;-83
2023/04/11 01:51:33;;;;;;;2.88;1.77;;;;;;;;;;5076209;28;20048;-83
2023/04/11 01:53:58;;;;;;;3.58;2.00;;;;;;;;;;5076688;28;20086;-83
2023/04/11 01:56:24;;;;;;;2.70;2.00;;;;;;;;;;5077826;28;20032;-83
2023/04/11 01:58:50;;;;;;;2.28;1.73;;;;;;;;;;5071891;28;20031;-83
2023/04/11 02:01:17;;;;;;;2.88;1.95;;;;;;;;;;5076321;28;20037;-83
2023/04/11 02:03:43;;;;;;;2.65;1.85;;;;;;;;;;5077114;28;20047;-83
2023/04/11 02:06:09;;;;;;;2.47;1.80;;;;;;;;;;5077678;28;20036;-83
2023/04/11 02:08:34;;;;;;;3.22;1.80;;;;;;;;;;5075738;28;20120;-83
2023/04/11 02:10:59;;;;;;;2.88;1.98;;;;;;;;;;5072149;28;20059;-84
2023/04/11 02:13:25;;;;;;;2.83;1.88;;;;;;;;;;5073924;28;20033;-84
2023/04/11 02:15:51;;;;;;;2.20;1.67;;;;;;;;;;5072309;28;20029;-83
2023/04/11 02:18:16;;;;;;;2.30;1.60;;;;;;;;;;5071623;28;20470;-83
2023/04/11 02:20:42;;;;;;;3.83;1.98;;;;;;;;;;5072181;28;20036;-83
2023/04/11 02:23:07;;;;;;;2.58;1.70;;;;;;;;;;5071645;28;20137;-83
2023/04/11 02:25:33;;;;;;;2.83;1.67;;;;;;;;;;5055492;28;20044;-83
2023/04/11 02:27:59;;;;;;;2.53;1.60;;;;;;;;;;5073168;28;20076;-83
2023/04/11 02:30:24;;;;;;;2.25;1.55;;;;;;;;;;5055538;28;20486;-83
2023/04/11 02:32:50;;;;;;;3.55;1.77;;;;;;;;;;5070327;28;20063;-82
2023/04/11 02:35:16;;;;;;;3.83;1.65;;;;;;;;;;5069959;28;20148;-83
2023/04/11 02:37:42;;;;;;;1.80;1.40;;;;;;;;;;5073162;28;20039;-83
2023/04/11 02:40:08;;;;;;;2.42;1.70;;;;;;;;;;5073054;28;20032;-83
2023/04/11 02:42:38;;;;;;;2.17;1.50;;;;;;;;;;5073160;28;20028;-83
2023/04/11 02:45:05;;;;;;;3.70;1.67;;;;;;;;;;5071842;28;20029;-83
2023/04/11 02:47:30;;;;;;;3.00;1.83;;;;;;;;;;5073424;28;20024;-83
2023/04/11 02:50:01;;;;;;;2.33;1.80;;;;;;;;;;5069938;28;20111;-83
2023/04/11 02:52:32;;;;;;;2.38;1.58;;;;;;;;;;5072088;28;20437;-83
2023/04/11 02:54:58;;;;;;;2.47;1.80;;;;;;;;;;5075626;28;20183;-83
2023/04/11 02:57:24;;;;;;;2.20;1.77;;;;;;;;;;5077122;28;20028;-83
2023/04/11 02:59:51;;;;;;;2.55;1.80;;;;;;;;;;5075077;28;20058;-83
2023/04/11 03:02:24;;;;;;;3.45;1.80;;;;;;;;;;5074892;28;20410;-83
2023/04/11 03:04:50;;;;;;;2.70;1.80;;;;;;;;;;5075412;28;20044;-83
2023/04/11 03:07:16;;;;;;;3.70;1.80;;;;;;;;;;5074450;28;20388;-83
2023/04/11 03:09:42;;;;;;;2.25;1.63;;;;;;;;;;5076487;28;20033;-83
2023/04/11 03:12:07;;;;;;;4.00;1.70;;;;;;;;;;5060522;28;20104;-83
2023/04/11 03:14:38;;;;;;;2.78;1.90;;;;;;;;;;5086085;28;20143;-83
2023/04/11 03:17:03;;;;;;;2.72;1.90;;;;;;;;;;5081064;28;20498;-83
2023/04/11 03:19:31;;;;;;;2.53;1.70;;;;;;;;;;5083714;28;20098;-83
2023/04/11 03:22:00;;;;;;;2.30;1.63;;;;;;;;;;5082635;28;20043;-83
2023/04/11 03:24:25;;;;;;;2.28;1.60;;;;;;;;;;5065165;28;20044;-83
2023/04/11 03:26:51;;;;;;;2.80;1.77;;;;;;;;;;5083094;28;20036;-83
2023/04/11 03:29:17;;;;;;;3.00;1.73;;;;;;;;;;5084249;28;20119;-83
2023/04/11 03:32:03;;;;;;;2.42;1.55;;;;;;;;;;5083159;28;20051;-83
2023/04/11 03:34:32;;;;;;;2.30;1.50;;;;;;;;;;5083223;28;20032;-83
2023/04/11 03:36:58;;;;;;;2.10;1.60;;;;;;;;;;5082770;28;20028;-83
2023/04/11 03:39:24;;;;;;;2.40;1.70;;;;;;;;;;5099006;28;20031;-83
2023/04/11 03:41:50;;;;;;;19.20;8.90;;;;;;;;;;5074755;28;20029;-83
2023/04/11 03:44:16;;;;;;;39.72;12.98;;;;;;;;;;5074359;28;20086;-83
2023/04/11 03:46:42;;;;;;;14.98;7.45;;;;;;;;;;5079379;28;20032;-83
2023/04/11 03:49:08;;;;;;;5.72;3.70;;;;;;;;;;5079514;28;20064;-83
2023/04/11 03:51:35;;;;;;;3.28;2.50;;;;;;;;;;5076856;28;20036;-83
2023/04/11 03:54:05;;;;;;;6.55;3.83;;;;;;;;;;5076287;28;20029;-83
2023/04/11 03:56:39;;;;;;;2.80;2.10;;;;;;;;;;5072709;28;20395;-83
2023/04/11 03:59:08;;;;;;;2.65;1.83;;;;;;;;;;5075384;28;20081;-82
2023/04/11 04:01:48;;;;;;;2.75;2.10;;;;;;;;;;5064187;28;20123;-83
2023/04/11 04:04:13;;;;;;;3.08;2.30;;;;;;;;;;5073733;28;20083;-83
2023/04/11 04:06:44;;;;;;;5.57;2.80;;;;;;;;;;5054310;28;20028;-83
2023/04/11 04:09:10;;;;;;;3.42;2.20;;;;;;;;;;5057111;28;20056;-83
2023/04/11 04:11:46;;;;;;;3.08;2.08;;;;;;;;;;5075011;28;20032;-82
2023/04/11 04:14:12;;;;;;;4.07;1.80;;;;;;;;;;5058557;28;20111;-83
2023/04/11 04:16:38;;;;;;;4.10;2.15;;;;;;;;;;5091256;28;20063;-83
2023/04/11 04:19:05;;;;;;;2.60;1.95;;;;;;;;;;5074408;28;20028;-83
2023/04/11 04:21:31;;;;;;;3.20;1.90;;;;;;;;;;5091260;28;20409;-83
2023/04/11 04:24:02;;;;;;;4.05;1.98;;;;;;;;;;5074753;28;20383;-83
2023/04/11 04:26:51;;;;;;;2.78;1.95;;;;;;;;;;5061161;28;20491;-83
2023/04/11 04:29:37;;;;;;;3.80;1.90;;;;;;;;;;5074010;28;20029;-83
2023/04/11 04:32:09;;;;;;;2.60;1.75;;;;;;;;;;5074211;28;20055;-83
2023/04/11 04:34:53;;;;;;;3.67;1.80;;;;;;;;;;5072428;28;20032;-83
2023/04/11 04:37:30;;;;;;;2.35;1.73;;;;;;;;;;5074133;28;20054;-83
2023/04/11 04:40:12;;;;;;;2.50;1.85;;;;;;;;;;5059716;28;20025;-83
2023/04/11 04:42:57;;;;;;;2.30;1.52;;;;;;;;;;5073289;28;20706;-83
2023/04/11 04:45:26;;;;;;;2.22;1.60;;;;;;;;;;5088033;28;20098;-83
2023/04/11 04:47:52;;;;;;;2.47;1.70;;;;;;;;;;5073243;28;20033;-83
2023/04/11 04:50:18;;;;;;;2.50;1.60;;;;;;;;;;5073155;28;20024;-83
2023/04/11 04:52:45;;;;;;;2.80;1.90;;;;;;;;;;5072173;28;20552;-83
2023/04/11 04:55:10;;;;;;;2.38;1.75;;;;;;;;;;5074934;28;20089;-83
2023/04/11 04:57:36;;;;;;;3.15;2.08;;;;;;;;;;5073290;28;20111;-83
2023/04/11 05:00:10;;;;;;;2.08;1.63;;;;;;;;;;5073248;28;20086;-83
2023/04/11 05:02:39;;;;;;;2.35;1.48;;;;;;;;;;5072747;28;20035;-83
2023/04/11 05:05:06;;;;;;;3.35;1.90;;;;;;;;;;5073039;28;20518;-83
2023/04/11 05:07:32;;;;;;;3.63;1.80;;;;;;;;;;5073113;28;20032;-83
2023/04/11 05:09:58;;;;;;;2.92;1.90;;;;;;;;;;5072934;28;20031;-83
2023/04/11 05:12:26;;;;;;;2.95;1.90;;;;;;;;;;5072833;28;20050;-83
2023/04/11 05:14:55;;;;;;;3.30;1.83;;;;;;;;;;5069654;28;20111;-82
2023/04/11 05:17:22;;;;;;;2.10;1.40;;;;;;;;;;5072638;28;20055;-82
2023/04/11 05:19:49;;;;;;;3.35;1.90;;;;;;;;;;5071606;28;20033;-82
2023/04/11 05:22:14;;;;;;;2.88;1.90;;;;;;;;;;5073033;28;20039;-82
2023/04/11 05:24:46;;;;;;;2.72;1.80;;;;;;;;;;5070625;28;20459;-82
2023/04/11 05:27:12;;;;;;;2.85;1.80;;;;;;;;;;5072694;28;20028;-83
2023/04/11 05:29:38;;;;;;;2.65;1.75;;;;;;;;;;5072332;28;20033;-83
2023/04/11 05:32:04;;;;;;;2.13;1.60;;;;;;;;;;5071104;28;20033;-82
2023/04/11 05:34:31;;;;;;;2.95;2.00;;;;;;;;;;5065997;28;20036;-84
2023/04/11 05:36:57;;;;;;;2.67;1.98;;;;;;;;;;5071512;28;20056;-83
2023/04/11 05:39:22;;;;;;;3.35;1.80;;;;;;;;;;5071692;28;20078;-83
2023/04/11 05:41:48;;;;;;;3.25;1.90;;;;;;;;;;5072623;28;20028;-83
2023/04/11 05:44:14;;;;;;;2.83;1.75;;;;;;;;;;5073550;28;20135;-83
2023/04/11 05:46:40;;;;;;;9.43;1.80;;;;;;;;;;5073662;28;20028;-83
2023/04/11 05:49:05;;;;;;;3.25;2.00;;;;;;;;;;5051346;28;20028;-83
2023/04/11 05:51:31;;;;;;;3.00;2.05;;;;;;;;;;5069820;28;20114;-83
2023/04/11 05:53:56;;;;;;;2.45;1.80;;;;;;;;;;5073275;28;20424;-83
2023/04/11 05:56:22;;;;;;;2.38;1.70;;;;;;;;;;5054166;28;20037;-83
2023/04/11 05:58:47;;;;;;;2.58;1.70;;;;;;;;;;5072499;28;20123;-83
2023/04/11 06:01:19;;;;;;;2.70;1.70;;;;;;;;;;5074043;28;20393;-83
2023/04/11 06:03:45;;;;;;;3.63;1.50;;;;;;;;;;5073399;28;20032;-83
2023/04/11 06:06:11;;;;;;;2.05;1.50;;;;;;;;;;5074080;28;20132;-83
2023/04/11 06:08:37;;;;;;;3.72;1.60;;;;;;;;;;5073393;28;20044;-83
2023/04/11 06:11:03;;;;;;;3.45;1.80;;;;;;;;;;5074387;28;20482;-83
2023/04/11 06:13:29;;;;;;;2.35;1.65;;;;;;;;;;5074733;28;20047;-83
2023/04/11 06:15:54;;;;;;;2.90;2.00;;;;;;;;;;5073581;28;20123;-84
2023/04/11 06:18:20;;;;;;;2.92;1.90;;;;;;;;;;5073513;28;20428;-83
2023/04/11 06:20:45;;;;;;;3.70;2.38;;;;;;;;;;5076547;28;20032;-83
2023/04/11 06:23:11;;;;;;;2.58;1.92;;;;;;;;;;5080441;28;20044;-84
2023/04/11 06:25:37;;;;;;;3.15;1.73;;;;;;;;;;5081723;28;20043;-83
2023/04/11 06:28:02;;;;;;;3.15;1.45;;;;;;;;;;5082482;28;20041;-83
2023/04/11 06:30:28;;;;;;;3.58;1.50;;;;;;;;;;5082981;28;20032;-83
2023/04/11 06:32:54;;;;;;;5.60;2.00;;;;;;;;;;5082689;28;20040;-83
2023/04/11 06:35:23;;;;;;;3.90;1.60;;;;;;;;;;5085677;28;20047;-83
2023/04/11 06:37:50;;;;;;;2.13;1.60;;;;;;;;;;5078648;28;20039;-83
2023/04/11 06:40:16;;;;;;;3.35;1.60;;;;;;;;;;5074202;28;20185;-84
2023/04/11 06:42:41;;;;;;;5.38;1.58;;;;;;;;;;5074487;28;20045;-84
2023/04/11 06:45:08;;;;;;;3.10;1.50;;;;;;;;;;5076939;28;20086;-82
2023/04/11 06:47:34;;;;;;;4.38;1.50;;;;;;;;;;5059707;28;20448;-83
2023/04/11 06:49:59;;;;;;;2.88;1.63;;;;;;;;;;5075892;28;20029;-83
2023/04/11 06:52:25;;;;;;;1.90;1.40;;;;;;;;;;5076201;28;20071;-84
2023/04/11 06:54:50;;;;;;;2.85;2.08;;;;;;;;;;5077829;28;20416;-83
2023/04/11 06:57:16;;;;;;;4.07;2.40;;;;;;;;;;5076705;28;20037;-83
2023/04/11 06:59:42;;;;;;;5.22;2.40;;;;;;;;;;5076138;28;20032;-83
2023/04/11 07:02:07;;;;;;;8.10;4.65;;;;;;;;;;5077341;28;20035;-83
2023/04/11 07:04:33;;;;;;;16.38;9.00;;;;;;;;;;5077007;28;20393;-83
2023/04/11 07:06:59;;;;;;;10.35;5.88;;;;;;;;;;5076882;28;20185;-84
2023/04/11 07:09:24;;;;;;;5.30;3.55;;;;;;;;;;5072338;28;20032;-83
2023/04/11 07:11:50;;;;;;;4.72;2.80;;;;;;;;;;5077225;28;20047;-84
2023/04/11 07:14:15;;;;;;;3.90;2.50;;;;;;;;;;5075558;28;20043;-83
2023/04/11 07:16:41;;;;;;;4.28;2.67;;;;;;;;;;5093044;28;20123;-83
2023/04/11 07:19:06;;;;;;;3.88;2.40;;;;;;;;;;5058964;28;20032;-83
2023/04/11 07:21:32;;;;;;;3.17;2.20;;;;;;;;;;5077030;28;20044;-83
2023/04/11 07:23:59;;;;;;;3.55;2.20;;;;;;;;;;5090569;28;20033;-83
2023/04/11 07:26:26;;;;;;;4.32;2.00;;;;;;;;;;5077136;28;20093;-84
2023/04/11 07:28:51;;;;;;;2.15;1.60;;;;;;;;;;5075903;28;20643;-84
2023/04/11 07:31:20;;;;;;;1.90;1.50;;;;;;;;;;5092192;28;20048;-83
2023/04/11 07:33:45;;;;;;;2.28;1.42;;;;;;;;;;5095323;28;20044;-83
2023/04/11 07:36:11;;;;;;;2.88;1.60;;;;;;;;;;5078170;28;20033;-84
2023/04/11 07:38:36;;;;;;;2.90;1.98;;;;;;;;;;5061901;28;20025;-83
2023/04/11 07:41:03;;;;;;;3.78;1.90;;;;;;;;;;5080793;28;20067;-83
2023/04/11 07:43:30;;;;;;;4.70;1.98;;;;;;;;;;5078064;28;20044;-83
2023/04/11 07:45:57;;;;;;;3.72;1.70;;;;;;;;;;5092227;28;20082;-84
2023/04/11 07:48:24;;;;;;;3.40;1.55;;;;;;;;;;5075020;28;20039;-83
2023/04/11 07:50:51;;;;;;;3.03;1.67;;;;;;;;;;5078591;28;20032;-83
2023/04/11 07:53:16;;;;;;;2.65;1.60;;;;;;;;;;5076418;28;20051;-83
2023/04/11 07:55:42;;;;;;;2.70;1.30;;;;;;;;;;5079234;28;20036;-84
2023/04/11 07:58:07;;;;;;;2.47;1.20;;;;;;;;;;5076678;28;20446;-83
2023/04/11 08:00:34;;;;;;;3.05;1.35;;;;;;;;;;5078562;28;20111;-83
2023/04/11 08:03:07;;;;;;;1.45;1.10;;;;;;;;;;5078435;28;20046;-83
2023/04/11 08:05:34;;;;;;;2.22;1.40;;;;;;;;;;5076966;28;20037;-83
2023/04/11 08:08:01;;;;;;;2.15;1.30;;;;;;;;;;5077466;28;20040;-84
2023/04/11 08:10:26;;;;;;;2.35;1.60;;;;;;;;;;5074501;28;20474;-83
2023/04/11 08:12:52;;;;;;;2.97;1.83;;;;;;;;;;5076572;28;20044;-84
2023/04/11 08:15:18;;;;;;;7.20;1.80;;;;;;;;;;5076213;28;20568;-84
2023/04/11 08:17:44;;;;;;;2.47;1.73;;;;;;;;;;5076819;28;20070;-84
2023/04/11 08:20:11;;;;;;;3.70;1.45;;;;;;;;;;5077119;28;20047;-83
2023/04/11 08:22:41;;;;;;;1.48;1.30;;;;;;;;;;5076117;28;20123;-84
2023/04/11 08:25:08;;;;;;;2.08;1.50;;;;;;;;;;5076950;28;20455;-84
2023/04/11 08:27:34;;;;;;;2.35;1.05;;;;;;;;;;5076152;28;20064;-84
2023/04/11 08:30:00;;;;;;;2.03;1.27;;;;;;;;;;5092334;28;20039;-82
2023/04/11 08:32:26;;;;;;;1.23;0.90;;;;;;;;;;5076549;28;20032;-83
2023/04/11 08:34:51;;;;;;;1.33;0.88;;;;;;;;;;5075406;28;20038;-84
2023/04/11 08:37:17;;;;;;;1.33;0.90;;;;;;;;;;5090762;28;20017;-84
2023/04/11 08:39:42;;;;;;;2.95;1.02;;;;;;;;;;5076596;28;20091;-83
2023/04/11 08:42:29;;;;;;;2.30;1.33;;;;;;;;;;5076434;28;20045;-83
2023/04/11 08:44:57;;;;;;;1.38;0.80;;;;;;;;;;5058515;28;20115;-84
2023/04/11 08:47:23;;;;;;;2.20;1.10;;;;;;;;;;5075710;28;20497;-84
2023/04/11 08:49:49;;;;;;;4.50;1.90;;;;;;;;;;5057481;28;20033;-84
2023/04/11 08:52:18;;;;;;;2.83;1.58;;;;;;;;;;5075648;28;20036;-84
2023/04/11 08:54:44;;;;;;;1.33;0.82;;;;;;;;;;5076121;28;20036;-84
2023/04/11 08:57:13;;;;;;;0.85;0.77;;;;;;;;;;5074981;28;20048;-84
2023/04/11 08:59:49;;;;;;;0.73;0.50;;;;;;;;;;5075420;28;20033;-83
2023/04/11 09:02:15;;;;;;;0.98;0.30;;;;;;;;;;5073221;28;20028;-84
2023/04/11 09:04:42;;;;;;;0.95;0.50;;;;;;;;;;5075807;28;20127;-84
2023/04/11 09:07:07;;;;;;;0.30;0.20;;;;;;;;;;5075340;28;20056;-84
2023/04/11 09:09:35;;;;;;;0.30;0.30;;;;;;;;;;5073690;28;20044;-83
2023/04/11 09:12:02;;;;;;;0.30;0.30;;;;;;;;;;5075783;28;20051;-84
2023/04/11 09:14:28;;;;;;;0.40;0.40;;;;;;;;;;5075239;28;20036;-84
2023/04/11 09:16:57;;;;;;;1.73;0.80;;;;;;;;;;5054971;28;20418;-84
2023/04/11 09:19:28;;;;;;;0.68;0.52;;;;;;;;;;5074324;28;20047;-84
2023/04/11 09:21:58;;;;;;;1.02;0.60;;;;;;;;;;5075302;28;20048;-84
2023/04/11 09:24:25;;;;;;;0.60;0.40;;;;;;;;;;5090505;28;20115;-84
2023/04/11 09:27:06;;;;;;;0.68;0.55;;;;;;;;;;5074728;28;20051;-84
2023/04/11 09:29:45;;;;;;;0.50;0.50;;;;;;;;;;5072895;28;20116;-84
2023/04/11 09:32:33;;;;;;;0.60;0.60;;;;;;;;;;5072629;28;20059;-84
2023/04/11 09:35:14;;;;;;;1.63;0.80;;;;;;;;;;5071626;28;20118;-84
2023/04/11 09:37:52;;;;;;;3.35;0.80;;;;;;;;;;5072448;28;20051;-84
2023/04/11 09:40:21;;;;;;;1.10;0.55;;;;;;;;;;5072016;28;20028;-84
2023/04/11 09:42:48;;;;;;;0.77;0.60;;;;;;;;;;5074657;28;20608;-84
2023/04/11 09:45:19;;;;;;;1.55;0.63;;;;;;;;;;5075428;28;20406;-84
2023/04/11 09:47:46;;;;;;;0.85;0.50;;;;;;;;;;5056202;28;20485;-84
2023/04/11 09:50:12;;;;;;;0.52;0.45;;;;;;;;;;5089332;28;20020;-83
2023/04/11 09:52:44;;;;;;;0.75;0.40;;;;;;;;;;5074939;28;20047;-84
2023/04/11 09:55:12;;;;;;;0.52;0.40;;;;;;;;;;5070354;28;20044;-82
2023/04/11 09:57:44;;;;;;;0.30;0.30;;;;;;;;;;5075212;28;20020;-84
2023/04/11 10:00:23;;;;;;;0.40;0.40;;;;;;;;;;5072240;28;20036;-83
2023/04/11 10:02:51;;;;;;;0.85;0.52;;;;;;;;;;5074598;28;20036;-83
2023/04/11 10:05:19;;;;;;;0.80;0.55;;;;;;;;;;5076850;28;20439;-84
2023/04/11 10:07:48;;;;;;;1.17;0.75;;;;;;;;;;5078965;28;20117;-83
2023/04/11 10:10:19;;;;;;;0.80;0.60;;;;;;;;;;5077264;28;20514;-84
2023/04/11 10:12:44;;;;;;;0.68;0.50;;;;;;;;;;5077058;28;20044;-84
2023/04/11 10:15:11;;;;;;;1.83;0.70;;;;;;;;;;5076534;28;20028;-84
2023/04/11 10:17:38;;;;;;;0.50;0.50;;;;;;;;;;5078024;28;20032;-84
2023/04/11 10:20:36;;;;;;;1.08;0.52;;;;;;;;;;5075594;28;20037;-83
2023/04/11 10:23:03;;;;;;;1.30;0.60;;;;;;;;;;5078477;28;20040;-83
2023/04/11 10:25:29;;;;;;;2.15;0.80;;;;;;;;;;5078194;28;20140;-83
2023/04/11 10:28:05;;;;;;;1.10;0.68;;;;;;;;;;5078359;28;20480;-83
2023/04/11 10:30:39;;;;;;;0.77;0.70;;;;;;;;;;5076214;28;20040;-83
2023/04/11 10:33:16;;;;;;;2.40;0.80;;;;;;;;;;5091719;28;20120;-83
2023/04/11 10:35:57;;;;;;;0.93;0.60;;;;;;;;;;5078159;28;20043;-84
2023/04/11 10:38:49;;;;;;;3.00;0.60;;;;;;;;;;5075755;28;20043;-82
2023/04/11 10:41:32;;;;;;;0.85;0.50;;;;;;;;;;5075913;28;20129;-84
2023/04/11 10:44:20;;;;;;;4.03;0.40;;;;;;;;;;5091029;28;20036;-84
2023/04/11 10:46:51;;;;;;;1.25;0.60;;;;;;;;;;5073098;28;20079;-84
2023/04/11 10:49:37;;;;;;;1.23;0.45;;;;;;;;;;5077261;28;20036;-84
2023/04/11 10:52:22;;;;;;;0.73;0.60;;;;;;;;;;5076549;28;20047;-83
2023/04/11 10:54:49;;;;;;;1.80;0.50;;;;;;;;;;5076649;28;20390;-84
2023/04/11 10:57:15;;;;;;;0.95;0.60;;;;;;;;;;5076961;28;20058;-84
2023/04/11 10:59:55;;;;;;;2.58;0.80;;;;;;;;;;5055431;28;20074;-83
2023/04/11 11:02:34;;;;;;;1.10;0.50;;;;;;;;;;5075562;28;20047;-84
2023/04/11 11:05:00;;;;;;;1.55;0.63;;;;;;;;;;5077117;28;20036;-84
2023/04/11 11:07:26;;;;;;;0.73;0.50;;;;;;;;;;5075800;28;20039;-84
2023/04/11 11:09:52;;;;;;;0.60;0.40;;;;;;;;;;5067233;28;20120;-84
2023/04/11 11:12:17;;;;;;;2.55;0.70;;;;;;;;;;5076177;28;20068;-83
2023/04/11 11:14:45;;;;;;;0.80;0.50;;;;;;;;;;5084466;28;20558;-83
2023/04/11 11:17:15;;;;;;;1.55;0.70;;;;;;;;;;5079235;28;20042;-83
2023/04/11 11:19:45;;;;;;;0.38;0.38;;;;;;;;;;5079308;28;20112;-83
2023/04/11 11:22:26;;;;;;;1.38;0.57;;;;;;;;;;5077780;28;20075;-84
2023/04/11 11:24:52;;;;;;;1.13;0.50;;;;;;;;;;5094916;28;20041;-83
2023/04/11 11:27:19;;;;;;;1.33;0.60;;;;;;;;;;5078279;28;20033;-84
2023/04/11 11:29:45;;;;;;;0.50;0.50;;;;;;;;;;5094814;28;20032;-84
2023/04/11 11:32:21;;;;;;;1.08;0.70;;;;;;;;;;5076791;28;20052;-82
2023/04/11 11:34:46;;;;;;;1.63;0.60;;;;;;;;;;5078321;28;20110;-84
2023/04/11 11:37:13;;;;;;;1.08;0.60;;;;;;;;;;5076624;28;20067;-83
2023/04/11 11:39:39;;;;;;;0.70;0.60;;;;;;;;;;5076862;28;20047;-83
2023/04/11 11:42:04;;;;;;;2.45;0.63;;;;;;;;;;5068029;28;20036;-83
2023/04/11 11:44:30;;;;;;;4.47;0.70;;;;;;;;;;5078602;28;20494;-82
2023/04/11 11:47:13;;;;;;;1.25;0.80;;;;;;;;;;5078770;28;20036;-83
2023/04/11 11:49:49;;;;;;;2.13;0.70;;;;;;;;;;5074109;28;20082;-84
2023/04/11 11:52:35;;;;;;;3.47;0.90;;;;;;;;;;5077377;28;20043;-84
2023/04/11 11:55:04;;;;;;;2.75;0.90;;;;;;;;;;5076817;28;20474;-84
2023/04/11 11:57:30;;;;;;;2.33;1.10;;;;;;;;;;5077299;28;20032;-84
2023/04/11 11:59:59;;;;;;;2.97;0.73;;;;;;;;;;5077419;28;20029;-83
2023/04/11 12:02:26;;;;;;;1.90;0.80;;;;;;;;;;5076801;28;20033;-84
2023/04/11 12:04:59;;;;;;;1.38;0.80;;;;;;;;;;5076047;28;20028;-84
2023/04/11 12:07:25;;;;;;;1.67;0.90;;;;;;;;;;5076968;28;20029;-84
2023/04/11 12:09:58;;;;;;;1.52;1.02;;;;;;;;;;5075106;28;20040;-83
2023/04/11 12:12:30;;;;;;;1.25;0.80;;;;;;;;;;5075660;28;20032;-84
2023/04/11 12:14:55;;;;;;;3.65;0.80;;;;;;;;;;5090328;28;20403;-84
2023/04/11 12:17:21;;;;;;;1.90;0.90;;;;;;;;;;5054155;28;20482;-83
2023/04/11 12:19:46;;;;;;;2.15;0.90;;;;;;;;;;5075751;28;20497;-82
2023/04/11 12:22:12;;;;;;;1.80;0.93;;;;;;;;;;5075939;28;20032;-83
2023/04/11 12:24:37;;;;;;;1.15;0.80;;;;;;;;;;5076285;28;20025;-83
2023/04/11 12:27:03;;;;;;;1.75;0.90;;;;;;;;;;5073615;28;20408;-82
2023/04/11 12:29:28;;;;;;;1.13;0.70;;;;;;;;;;5072568;28;20451;-83
2023/04/11 12:31:54;;;;;;;2.47;1.20;;;;;;;;;;5075942;28;20040;-83
2023/04/11 12:34:20;;;;;;;3.15;0.80;;;;;;;;;;5058238;28;20037;-83
2023/04/11 12:36:45;;;;;;;2.22;0.93;;;;;;;;;;5074859;28;20047;-83
2023/04/11 12:39:10;;;;;;;1.50;0.70;;;;;;;;;;5074588;28;20062;-84
2023/04/11 12:41:36;;;;;;;2.70;0.95;;;;;;;;;;5075968;28;20028;-84
2023/04/11 12:44:02;;;;;;;1.45;0.85;;;;;;;;;;5076218;28;20036;-84
2023/04/11 12:46:28;;;;;;;2.50;1.30;;;;;;;;;;5076062;28;20032;-84
2023/04/11 12:48:54;;;;;;;5.18;1.70;;;;;;;;;;5075832;28;20104;-84
2023/04/11 12:51:19;;;;;;;3.47;1.30;;;;;;;;;;5073937;28;20397;-84
2023/04/11 12:53:45;;;;;;;2.60;0.85;;;;;;;;;;5071446;28;20086;-84
2023/04/11 12:56:10;;;;;;;2.38;0.75;;;;;;;;;;5074301;28;20078;-83
2023/04/11 12:58:36;;;;;;;1.20;0.60;;;;;;;;;;5075131;28;20032;-83
2023/04/11 13:01:01;;;;;;;2.67;0.80;;;;;;;;;;5072243;28;20032;-84
2023/04/11 13:03:27;;;;;;;1.92;0.80;;;;;;;;;;5074904;28;20119;-83
2023/04/11 13:05:53;;;;;;;3.60;1.00;;;;;;;;;;5075367;28;20111;-83
2023/04/11 13:08:18;;;;;;;2.38;0.90;;;;;;;;;;5073881;28;20055;-83
2023/04/11 13:10:44;;;;;;;1.77;1.00;;;;;;;;;;5075771;28;20056;-83
2023/04/11 13:13:09;;;;;;;4.38;1.80;;;;;;;;;;5074034;28;20040;-84
2023/04/11 13:15:35;;;;;;;3.72;2.25;;;;;;;;;;5075672;28;20114;-84
2023/04/11 13:18:00;;;;;;;4.00;1.20;;;;;;;;;;5077188;28;20097;-84
2023/04/11 13:20:26;;;;;;;1.77;1.10;;;;;;;;;;5077981;28;20029;-83
2023/04/11 13:22:51;;;;;;;1.00;0.80;;;;;;;;;;5076746;28;20037;-82
2023/04/11 13:25:17;;;;;;;2.45;0.88;;;;;;;;;;5067108;28;20123;-83
2023/04/11 13:27:43;;;;;;;3.13;1.10;;;;;;;;;;5074974;28;20032;-84
2023/04/11 13:30:09;;;;;;;3.30;1.10;;;;;;;;;;5074760;28;20036;-84
2023/04/11 13:32:35;;;;;;;4.53;1.10;;;;;;;;;;5074691;28;20045;-84
2023/04/11 13:35:01;;;;;;;4.15;1.15;;;;;;;;;;5056726;28;20703;-84
2023/04/11 13:37:27;;;;;;;2.80;1.00;;;;;;;;;;5074177;28;20081;-84
2023/04/11 13:39:52;;;;;;;2.13;0.80;;;;;;;;;;5074136;28;20050;-84
2023/04/11 13:42:20;;;;;;;3.85;1.20;;;;;;;;;;5073936;28;20115;-84
2023/04/11 13:44:46;;;;;;;4.32;1.05;;;;;;;;;;5074654;28;20024;-82
2023/04/11 13:47:11;;;;;;;3.80;1.30;;;;;;;;;;5073234;28;20032;-84
2023/04/11 13:49:36;;;;;;;2.67;1.40;;;;;;;;;;5074576;28;20032;-84
2023/04/11 13:52:02;;;;;;;3.00;0.98;;;;;;;;;;5074511;28;20040;-84
2023/04/11 13:54:29;;;;;;;5.00;1.02;;;;;;;;;;5073086;28;20036;-84
2023/04/11 13:56:55;;;;;;;3.63;1.33;;;;;;;;;;5074571;28;20051;-84
2023/04/11 13:59:21;;;;;;;4.38;1.40;;;;;;;;;;5074641;28;20040;-83
2023/04/11 14:01:46;;;;;;;2.65;1.05;;;;;;;;;;5072032;28;20040;-83
2023/04/11 14:04:12;;;;;;;4.38;1.10;;;;;;;;;;5073212;28;20032;-83
2023/04/11 14:06:38;;;;;;;3.58;1.60;;;;;;;;;;5074570;28;20037;-84
2023/04/11 14:09:07;;;;;;;4.07;1.25;;;;;;;;;;5072823;28;20033;-84
2023/04/11 14:11:32;;;;;;;4.45;1.20;;;;;;;;;;5084253;23;20080;-85
2023/04/11 14:13:58;;;;;;;2.22;1.00;;;;;;;;;;5064619;28;20129;-84
2023/04/11 14:16:23;;;;;;;3.33;0.98;;;;;;;;;;5051850;28;20144;-85
2023/04/11 14:18:49;;;;;;;5.78;2.45;;;;;;;;;;5051596;28;20036;-83
2023/04/11 14:21:14;;;;;;;2.95;1.20;;;;;;;;;;5050865;28;20086;-82
2023/04/11 14:23:40;;;;;;;6.10;0.95;;;;;;;;;;5070342;28;20103;-84
2023/04/11 14:26:05;;;;;;;6.30;1.08;;;;;;;;;;5053631;28;20081;-85
2023/04/11 14:28:31;;;;;;;3.38;1.20;;;;;;;;;;5071644;28;20387;-84
2023/04/11 14:30:56;;;;;;;4.07;1.38;;;;;;;;;;5070180;28;20036;-85
2023/04/11 14:33:22;;;;;;;3.65;1.30;;;;;;;;;;5066836;28;20079;-84
2023/04/11 14:35:49;;;;;;;3.15;1.23;;;;;;;;;;5068845;28;20033;-86
2023/04/11 14:38:14;;;;;;;3.35;1.00;;;;;;;;;;5071536;28;20035;-85
2023/04/11 14:40:40;;;;;;;2.97;1.10;;;;;;;;;;5070393;28;20397;-86
2023/04/11 14:43:06;;;;;;;2.33;0.90;;;;;;;;;;5070152;28;20490;-85
2023/04/11 14:45:31;;;;;;;3.72;1.10;;;;;;;;;;5071731;28;20063;-85
2023/04/11 14:47:56;;;;;;;2.65;1.05;;;;;;;;;;5071520;28;20063;-85